sensor_id;sensor_type;location;lat;lon;timestamp;pressure;altitude;pressure_sealevel;temperature;humidity
77299;BME280;66361;52.034;20.656;2023-06-24T00:01:57;99955.34;;;17.90;85.69
77299;BME280;66361;52.034;20.656;2023-06-24T00:06:02;99954.63;;;17.88;83.32
77299;BME280;66361;52.034;20.656;2023-06-24T00:10:06;99940.97;;;17.91;84.41
77299;BME280;66361;52.034;20.656;2023-06-24T00:14:09;99945.66;;;17.89;84.39
77299;BME280;66361;52.034;20.656;2023-06-24T00:18:12;99937.78;;;17.87;83.25
77299;BME280;66361;52.034;20.656;2023-06-24T00:22:16;99939.06;;;17.83;82.86
77299;BME280;66361;52.034;20.656;2023-06-24T00:26:19;99943.84;;;17.80;84.98
77299;BME280;66361;52.034;20.656;2023-06-24T00:30:22;99949.25;;;17.70;85.14
77299;BME280;66361;52.034;20.656;2023-06-24T00:34:25;99952.63;;;17.63;85.12
77299;BME280;66361;52.034;20.656;2023-06-24T00:38:29;99960.94;;;17.60;85.67
77299;BME280;66361;52.034;20.656;2023-06-24T00:42:33;99962.19;;;17.56;85.83
77299;BME280;66361;52.034;20.656;2023-06-24T00:46:37;99971.34;;;17.53;85.68
77299;BME280;66361;52.034;20.656;2023-06-24T00:50:42;99978.75;;;17.50;86.99
77299;BME280;66361;52.034;20.656;2023-06-24T00:54:48;99987.59;;;17.50;88.83
77299;BME280;66361;52.034;20.656;2023-06-24T00:58:54;99989.59;;;17.48;88.77
77299;BME280;66361;52.034;20.656;2023-06-24T01:02:59;100001.09;;;17.49;88.77
77299;BME280;66361;52.034;20.656;2023-06-24T01:07:02;100003.91;;;17.47;91.12
77299;BME280;66361;52.034;20.656;2023-06-24T01:11:07;99997.16;;;17.43;89.65
77299;BME280;66361;52.034;20.656;2023-06-24T01:15:13;99993.09;;;17.39;88.90
77299;BME280;66361;52.034;20.656;2023-06-24T01:24:17;99989.75;;;17.37;89.20
77299;BME280;66361;52.034;20.656;2023-06-24T01:28:46;99988.91;;;17.36;89.98
77299;BME280;66361;52.034;20.656;2023-06-24T01:33:04;99991.03;;;17.33;91.02
77299;BME280;66361;52.034;20.656;2023-06-24T01:37:10;99983.31;;;17.30;90.11
77299;BME280;66361;52.034;20.656;2023-06-24T01:41:18;99982.88;;;17.25;89.05
77299;BME280;66361;52.034;20.656;2023-06-24T01:45:26;99988.94;;;17.17;89.62
77299;BME280;66361;52.034;20.656;2023-06-24T01:49:33;99992.00;;;17.13;89.82
77299;BME280;66361;52.034;20.656;2023-06-24T01:53:42;100011.81;;;17.10;90.20
77299;BME280;66361;52.034;20.656;2023-06-24T01:57:48;100002.97;;;17.10;90.30
77299;BME280;66361;52.034;20.656;2023-06-24T02:01:52;100001.03;;;17.12;90.18
77299;BME280;66361;52.034;20.656;2023-06-24T02:05:58;100004.38;;;17.14;91.34
77299;BME280;66361;52.034;20.656;2023-06-24T02:10:03;100001.03;;;17.12;90.79
77299;BME280;66361;52.034;20.656;2023-06-24T02:14:06;100001.03;;;17.12;90.17
77299;BME280;66361;52.034;20.656;2023-06-24T02:18:11;100015.47;;;17.09;91.60
77299;BME280;66361;52.034;20.656;2023-06-24T02:22:19;100027.94;;;17.09;92.04
77299;BME280;66361;52.034;20.656;2023-06-24T02:26:23;100023.63;;;17.08;90.80
77299;BME280;66361;52.034;20.656;2023-06-24T02:30:28;100036.09;;;17.07;90.95
77299;BME280;66361;52.034;20.656;2023-06-24T02:34:31;100042.41;;;17.06;91.53
77299;BME280;66361;52.034;20.656;2023-06-24T02:38:36;100041.00;;;17.02;91.54
77299;BME280;66361;52.034;20.656;2023-06-24T02:42:40;100055.31;;;17.01;92.01
77299;BME280;66361;52.034;20.656;2023-06-24T02:46:43;100051.81;;;17.01;92.26
77299;BME280;66361;52.034;20.656;2023-06-24T02:50:49;100057.16;;;17.01;92.62
77299;BME280;66361;52.034;20.656;2023-06-24T02:54:55;100064.31;;;17.00;91.72
77299;BME280;66361;52.034;20.656;2023-06-24T02:58:58;100066.13;;;17.00;93.15
77299;BME280;66361;52.034;20.656;2023-06-24T03:03:02;100062.50;;;17.01;92.74
77299;BME280;66361;52.034;20.656;2023-06-24T03:07:06;100065.00;;;17.02;93.92
77299;BME280;66361;52.034;20.656;2023-06-24T03:11:14;100070.50;;;17.01;92.83
77299;BME280;66361;52.034;20.656;2023-06-24T03:15:17;100071.19;;;17.03;93.00
77299;BME280;66361;52.034;20.656;2023-06-24T03:19:19;100069.78;;;17.08;93.63
77299;BME280;66361;52.034;20.656;2023-06-24T03:23:23;100075.25;;;17.16;94.17
77299;BME280;66361;52.034;20.656;2023-06-24T03:27:29;100075.94;;;17.28;93.40
77299;BME280;66361;52.034;20.656;2023-06-24T03:31:33;100083.41;;;17.34;91.84
77299;BME280;66361;52.034;20.656;2023-06-24T03:35:35;100084.50;;;17.31;90.69
77299;BME280;66361;52.034;20.656;2023-06-24T03:39:39;100084.25;;;17.34;91.74
77299;BME280;66361;52.034;20.656;2023-06-24T03:43:43;100085.50;;;17.40;90.96
77299;BME280;66361;52.034;20.656;2023-06-24T03:47:46;100080.88;;;17.42;89.33
77299;BME280;66361;52.034;20.656;2023-06-24T03:51:49;100085.50;;;17.50;90.30
77299;BME280;66361;52.034;20.656;2023-06-24T03:55:52;100085.81;;;17.56;90.81
77299;BME280;66361;52.034;20.656;2023-06-24T03:59:57;100094.34;;;17.69;90.46
77299;BME280;66361;52.034;20.656;2023-06-24T04:04:00;100090.84;;;17.78;89.41
77299;BME280;66361;52.034;20.656;2023-06-24T04:08:03;100086.44;;;17.97;88.79
77299;BME280;66361;52.034;20.656;2023-06-24T04:12:09;100080.25;;;18.33;85.23
77299;BME280;66361;52.034;20.656;2023-06-24T04:16:14;100079.28;;;18.88;85.15
77299;BME280;66361;52.034;20.656;2023-06-24T04:20:17;100074.16;;;19.30;79.97
77299;BME280;66361;52.034;20.656;2023-06-24T04:24:21;100077.88;;;20.24;75.84
77299;BME280;66361;52.034;20.656;2023-06-24T04:28:24;100079.97;;;21.31;68.87
77299;BME280;66361;52.034;20.656;2023-06-24T04:32:29;100078.59;;;21.91;67.03
77299;BME280;66361;52.034;20.656;2023-06-24T04:36:32;100084.41;;;22.74;64.82
77299;BME280;66361;52.034;20.656;2023-06-24T04:40:37;100088.50;;;23.24;62.44
77299;BME280;66361;52.034;20.656;2023-06-24T04:44:40;100094.09;;;23.45;62.07
77299;BME280;66361;52.034;20.656;2023-06-24T04:48:44;100084.22;;;22.37;64.06
77299;BME280;66361;52.034;20.656;2023-06-24T04:52:54;100098.09;;;21.69;66.94
77299;BME280;66361;52.034;20.656;2023-06-24T04:56:58;100098.59;;;21.48;70.20
77299;BME280;66361;52.034;20.656;2023-06-24T05:01:01;100105.97;;;21.30;71.89
77299;BME280;66361;52.034;20.656;2023-06-24T05:05:06;100112.06;;;20.90;71.20
77299;BME280;66361;52.034;20.656;2023-06-24T05:09:09;100117.69;;;20.71;74.20
77299;BME280;66361;52.034;20.656;2023-06-24T05:13:15;100120.66;;;20.60;74.61
77299;BME280;66361;52.034;20.656;2023-06-24T05:17:18;100120.44;;;20.53;74.09
77299;BME280;66361;52.034;20.656;2023-06-24T05:21:22;100122.28;;;20.87;73.65
77299;BME280;66361;52.034;20.656;2023-06-24T05:25:25;100136.19;;;20.82;72.56
77299;BME280;66361;52.034;20.656;2023-06-24T05:29:28;100140.22;;;20.86;73.22
77299;BME280;66361;52.034;20.656;2023-06-24T05:33:32;100150.75;;;21.30;72.41
77299;BME280;66361;52.034;20.656;2023-06-24T05:37:36;100152.63;;;21.37;69.82
77299;BME280;66361;52.034;20.656;2023-06-24T05:41:39;100170.94;;;21.74;70.51
77299;BME280;66361;52.034;20.656;2023-06-24T05:45:42;100161.91;;;22.24;67.65
77299;BME280;66361;52.034;20.656;2023-06-24T05:49:45;100156.38;;;22.72;65.14
77299;BME280;66361;52.034;20.656;2023-06-24T05:53:50;100154.41;;;23.05;62.99
77299;BME280;66361;52.034;20.656;2023-06-24T05:57:53;100158.53;;;23.77;61.43
77299;BME280;66361;52.034;20.656;2023-06-24T06:01:56;100163.81;;;24.60;60.08
77299;BME280;66361;52.034;20.656;2023-06-24T06:05:59;100169.22;;;24.45;59.60
77299;BME280;66361;52.034;20.656;2023-06-24T06:10:04;100164.28;;;24.11;59.85
77299;BME280;66361;52.034;20.656;2023-06-24T06:18:11;100169.41;;;25.38;57.32
77299;BME280;66361;52.034;20.656;2023-06-24T06:22:14;100171.41;;;26.08;53.64
77299;BME280;66361;52.034;20.656;2023-06-24T06:26:18;100176.44;;;25.75;54.40
77299;BME280;66361;52.034;20.656;2023-06-24T06:30:21;100174.50;;;25.84;52.70
77299;BME280;66361;52.034;20.656;2023-06-24T06:34:24;100181.69;;;25.41;54.32
77299;BME280;66361;52.034;20.656;2023-06-24T06:38:27;100173.19;;;26.01;54.80
77299;BME280;66361;52.034;20.656;2023-06-24T06:42:31;100182.88;;;26.17;54.68
77299;BME280;66361;52.034;20.656;2023-06-24T06:46:34;100181.81;;;26.11;54.16
77299;BME280;66361;52.034;20.656;2023-06-24T06:50:37;100184.63;;;26.24;54.10
77299;BME280;66361;52.034;20.656;2023-06-24T06:54:40;100188.47;;;26.36;52.83
77299;BME280;66361;52.034;20.656;2023-06-24T06:58:45;100177.66;;;27.05;51.40
77299;BME280;66361;52.034;20.656;2023-06-24T07:02:52;100186.63;;;27.60;51.15
77299;BME280;66361;52.034;20.656;2023-06-24T07:06:55;100177.72;;;28.18;48.83
77299;BME280;66361;52.034;20.656;2023-06-24T07:11:01;100185.75;;;27.53;51.33
77299;BME280;66361;52.034;20.656;2023-06-24T07:15:06;100178.63;;;27.32;50.82
77299;BME280;66361;52.034;20.656;2023-06-24T07:19:13;100184.59;;;26.80;51.25
77299;BME280;66361;52.034;20.656;2023-06-24T07:23:16;100184.59;;;28.60;48.26
77299;BME280;66361;52.034;20.656;2023-06-24T07:27:19;100184.81;;;29.74;44.44
77299;BME280;66361;52.034;20.656;2023-06-24T07:31:23;100188.31;;;30.06;41.53
77299;BME280;66361;52.034;20.656;2023-06-24T07:35:26;100185.41;;;29.38;42.09
77299;BME280;66361;52.034;20.656;2023-06-24T07:39:32;100182.25;;;28.83;43.67
77299;BME280;66361;52.034;20.656;2023-06-24T07:43:40;100193.13;;;30.60;42.25
77299;BME280;66361;52.034;20.656;2023-06-24T07:47:44;100189.38;;;31.15;42.55
77299;BME280;66361;52.034;20.656;2023-06-24T07:51:49;100190.13;;;29.94;43.71
77299;BME280;66361;52.034;20.656;2023-06-24T07:55:52;100188.69;;;30.16;40.78
77299;BME280;66361;52.034;20.656;2023-06-24T07:59:55;100201.78;;;29.69;42.06
77299;BME280;66361;52.034;20.656;2023-06-24T08:04:03;100195.25;;;29.32;42.54
77299;BME280;66361;52.034;20.656;2023-06-24T08:08:07;100207.88;;;30.27;40.26
77299;BME280;66361;52.034;20.656;2023-06-24T08:12:11;100200.50;;;30.03;41.72
77299;BME280;66361;52.034;20.656;2023-06-24T08:16:16;100199.84;;;29.76;40.44
77299;BME280;66361;52.034;20.656;2023-06-24T08:20:23;100202.94;;;28.84;43.59
77299;BME280;66361;52.034;20.656;2023-06-24T08:24:26;100202.97;;;28.71;41.81
77299;BME280;66361;52.034;20.656;2023-06-24T08:28:30;100207.38;;;28.33;42.84
77299;BME280;66361;52.034;20.656;2023-06-24T08:32:33;100215.41;;;27.67;44.80
77299;BME280;66361;52.034;20.656;2023-06-24T08:36:37;100221.69;;;27.61;45.26
77299;BME280;66361;52.034;20.656;2023-06-24T08:40:41;100224.28;;;28.28;43.65
77299;BME280;66361;52.034;20.656;2023-06-24T08:44:45;100210.34;;;27.44;42.59
77299;BME280;66361;52.034;20.656;2023-06-24T08:48:48;100229.25;;;27.25;44.64
77299;BME280;66361;52.034;20.656;2023-06-24T08:52:54;100238.72;;;26.45;45.72
77299;BME280;66361;52.034;20.656;2023-06-24T08:56:57;100232.38;;;26.38;45.87
77299;BME280;66361;52.034;20.656;2023-06-24T09:01:01;100235.94;;;25.75;47.40
77299;BME280;66361;52.034;20.656;2023-06-24T09:05:05;100233.63;;;25.36;46.30
77299;BME280;66361;52.034;20.656;2023-06-24T09:09:19;100241.19;;;25.26;45.45
77299;BME280;66361;52.034;20.656;2023-06-24T09:13:28;100244.63;;;25.20;47.55
77299;BME280;66361;52.034;20.656;2023-06-24T09:17:44;100244.19;;;25.17;47.14
77299;BME280;66361;52.034;20.656;2023-06-24T09:21:48;100235.94;;;25.39;50.11
77299;BME280;66361;52.034;20.656;2023-06-24T09:25:57;100234.78;;;25.48;47.06
77299;BME280;66361;52.034;20.656;2023-06-24T09:30:00;100240.50;;;25.39;46.24
77299;BME280;66361;52.034;20.656;2023-06-24T09:34:03;100241.34;;;25.75;48.65
77299;BME280;66361;52.034;20.656;2023-06-24T09:38:07;100242.38;;;25.74;48.88
77299;BME280;66361;52.034;20.656;2023-06-24T09:42:11;100244.69;;;25.41;46.67
77299;BME280;66361;52.034;20.656;2023-06-24T09:46:15;100240.25;;;25.19;47.92
77299;BME280;66361;52.034;20.656;2023-06-24T09:50:20;100240.25;;;25.19;49.21
77299;BME280;66361;52.034;20.656;2023-06-24T09:54:26;100248.72;;;25.01;49.98
77299;BME280;66361;52.034;20.656;2023-06-24T09:58:36;100247.56;;;24.67;49.54
77299;BME280;66361;52.034;20.656;2023-06-24T10:02:40;100243.59;;;24.77;50.44
77299;BME280;66361;52.034;20.656;2023-06-24T10:06:44;100250.94;;;24.69;53.77
77299;BME280;66361;52.034;20.656;2023-06-24T10:10:48;100237.31;;;24.25;51.24
77299;BME280;66361;52.034;20.656;2023-06-24T10:14:52;100251.66;;;24.25;52.39
77299;BME280;66361;52.034;20.656;2023-06-24T10:19:00;100253.44;;;24.10;52.80
77299;BME280;66361;52.034;20.656;2023-06-24T10:27:13;100247.00;;;23.96;53.91
77299;BME280;66361;52.034;20.656;2023-06-24T10:31:18;100246.03;;;23.89;53.23
77299;BME280;66361;52.034;20.656;2023-06-24T10:35:22;100244.94;;;23.98;54.63
77299;BME280;66361;52.034;20.656;2023-06-24T10:39:51;100238.91;;;23.74;54.28
77299;BME280;66361;52.034;20.656;2023-06-24T10:43:56;100241.84;;;23.87;56.16
77299;BME280;66361;52.034;20.656;2023-06-24T10:48:00;100248.97;;;23.80;55.15
77299;BME280;66361;52.034;20.656;2023-06-24T10:52:07;100245.66;;;23.70;57.87
77299;BME280;66361;52.034;20.656;2023-06-24T10:56:11;100249.38;;;23.69;56.43
77299;BME280;66361;52.034;20.656;2023-06-24T11:00:15;100244.03;;;23.60;56.87
77299;BME280;66361;52.034;20.656;2023-06-24T11:04:19;100244.84;;;23.61;62.00
77299;BME280;66361;52.034;20.656;2023-06-24T11:08:22;100261.47;;;23.64;62.08
77299;BME280;66361;52.034;20.656;2023-06-24T11:12:28;100252.22;;;23.36;63.25
77299;BME280;66361;52.034;20.656;2023-06-24T11:16:31;100259.78;;;23.41;64.09
77299;BME280;66361;52.034;20.656;2023-06-24T11:20:36;100264.00;;;23.35;65.15
77299;BME280;66361;52.034;20.656;2023-06-24T11:24:40;100271.03;;;23.05;65.08
77299;BME280;66361;52.034;20.656;2023-06-24T11:28:43;100270.97;;;23.22;68.79
77299;BME280;66361;52.034;20.656;2023-06-24T11:32:46;100273.09;;;22.95;67.76
77299;BME280;66361;52.034;20.656;2023-06-24T11:36:53;100280.00;;;22.82;69.20
77299;BME280;66361;52.034;20.656;2023-06-24T11:40:57;100281.16;;;22.71;69.53
77299;BME280;66361;52.034;20.656;2023-06-24T11:45:01;100272.78;;;22.42;72.10
77299;BME280;66361;52.034;20.656;2023-06-24T11:49:05;100269.94;;;22.27;74.20
77299;BME280;66361;52.034;20.656;2023-06-24T11:53:09;100272.75;;;22.01;76.07
77299;BME280;66361;52.034;20.656;2023-06-24T11:57:12;100276.47;;;22.08;77.17
77299;BME280;66361;52.034;20.656;2023-06-24T12:01:16;100275.44;;;22.01;79.67
77299;BME280;66361;52.034;20.656;2023-06-24T12:05:23;100274.25;;;22.04;77.45
77299;BME280;66361;52.034;20.656;2023-06-24T12:09:28;100276.81;;;22.05;76.05
77299;BME280;66361;52.034;20.656;2023-06-24T12:13:32;100273.31;;;22.13;77.38
77299;BME280;66361;52.034;20.656;2023-06-24T12:17:35;100276.47;;;22.08;75.04
77299;BME280;66361;52.034;20.656;2023-06-24T12:21:38;100279.16;;;22.08;77.42
77299;BME280;66361;52.034;20.656;2023-06-24T12:25:43;100280.69;;;22.11;75.83
77299;BME280;66361;52.034;20.656;2023-06-24T12:29:45;100275.31;;;22.27;73.98
77299;BME280;66361;52.034;20.656;2023-06-24T12:33:48;100273.47;;;22.52;74.08
77299;BME280;66361;52.034;20.656;2023-06-24T12:37:54;100281.50;;;22.84;73.63
77299;BME280;66361;52.034;20.656;2023-06-24T12:41:59;100275.53;;;23.13;71.83
77299;BME280;66361;52.034;20.656;2023-06-24T12:46:02;100275.16;;;23.24;68.19
77299;BME280;66361;52.034;20.656;2023-06-24T12:50:07;100270.88;;;23.77;70.94
77299;BME280;66361;52.034;20.656;2023-06-24T12:54:11;100276.88;;;24.09;68.58
77299;BME280;66361;52.034;20.656;2023-06-24T12:58:19;100262.19;;;24.35;63.52
77299;BME280;66361;52.034;20.656;2023-06-24T13:02:22;100269.56;;;24.78;65.08
77299;BME280;66361;52.034;20.656;2023-06-24T13:06:25;100263.97;;;24.65;63.31
77299;BME280;66361;52.034;20.656;2023-06-24T13:10:28;100259.31;;;24.88;63.16
77299;BME280;66361;52.034;20.656;2023-06-24T13:14:33;100253.28;;;25.01;61.98
77299;BME280;66361;52.034;20.656;2023-06-24T13:18:36;100258.66;;;24.57;59.76
77299;BME280;66361;52.034;20.656;2023-06-24T13:22:39;100258.19;;;24.53;60.44
77299;BME280;66361;52.034;20.656;2023-06-24T13:26:42;100264.88;;;24.43;54.44
77299;BME280;66361;52.034;20.656;2023-06-24T13:30:47;100267.88;;;24.40;52.18
77299;BME280;66361;52.034;20.656;2023-06-24T13:34:51;100260.59;;;24.48;50.32
77299;BME280;66361;52.034;20.656;2023-06-24T13:38:55;100268.19;;;24.22;49.02
77299;BME280;66361;52.034;20.656;2023-06-24T13:42:58;100272.53;;;24.54;49.61
77299;BME280;66361;52.034;20.656;2023-06-24T13:47:03;100260.31;;;24.21;48.12
77299;BME280;66361;52.034;20.656;2023-06-24T13:51:06;100260.16;;;24.14;48.81
77299;BME280;66361;52.034;20.656;2023-06-24T13:55:09;100259.44;;;23.75;47.78
77299;BME280;66361;52.034;20.656;2023-06-24T13:59:13;100264.16;;;23.73;47.40
77299;BME280;66361;52.034;20.656;2023-06-24T14:03:18;100267.06;;;23.63;49.08
77299;BME280;66361;52.034;20.656;2023-06-24T14:07:21;100266.09;;;23.56;47.94
77299;BME280;66361;52.034;20.656;2023-06-24T14:11:24;100263.00;;;23.36;48.77
77299;BME280;66361;52.034;20.656;2023-06-24T14:15:28;100287.94;;;23.30;51.54
77299;BME280;66361;52.034;20.656;2023-06-24T14:19:32;100278.94;;;23.07;53.92
77299;BME280;66361;52.034;20.656;2023-06-24T14:23:36;100285.91;;;23.32;55.13
77299;BME280;66361;52.034;20.656;2023-06-24T14:27:39;100274.13;;;22.70;55.58
77299;BME280;66361;52.034;20.656;2023-06-24T14:31:44;100271.44;;;22.62;56.95
77299;BME280;66361;52.034;20.656;2023-06-24T14:35:48;100268.94;;;22.44;57.14
77299;BME280;66361;52.034;20.656;2023-06-24T14:39:52;100272.78;;;22.34;59.34
77299;BME280;66361;52.034;20.656;2023-06-24T14:43:56;100268.44;;;22.16;57.11
77299;BME280;66361;52.034;20.656;2023-06-24T14:48:05;100272.44;;;21.88;57.87
77299;BME280;66361;52.034;20.656;2023-06-24T14:52:09;100270.97;;;21.52;57.70
77299;BME280;66361;52.034;20.656;2023-06-24T14:56:12;100257.00;;;21.40;56.78
77299;BME280;66361;52.034;20.656;2023-06-24T15:00:16;100256.28;;;20.96;57.78
77299;BME280;66361;52.034;20.656;2023-06-24T15:04:19;100259.53;;;20.74;60.46
77299;BME280;66361;52.034;20.656;2023-06-24T15:08:26;100263.53;;;20.26;66.35
77299;BME280;66361;52.034;20.656;2023-06-24T15:12:29;100262.38;;;19.76;68.70
77299;BME280;66361;52.034;20.656;2023-06-24T15:16:34;100264.81;;;19.42;72.92
77299;BME280;66361;52.034;20.656;2023-06-24T15:20:37;100262.06;;;19.07;75.55
77299;BME280;66361;52.034;20.656;2023-06-24T15:24:42;100254.56;;;18.83;80.36
77299;BME280;66361;52.034;20.656;2023-06-24T15:28:46;100254.41;;;18.84;80.95
77299;BME280;66361;52.034;20.656;2023-06-24T15:32:49;100257.88;;;18.95;82.01
77299;BME280;66361;52.034;20.656;2023-06-24T15:36:52;100244.88;;;19.09;82.03
77299;BME280;66361;52.034;20.656;2023-06-24T15:40:57;100247.06;;;19.41;83.06
77299;BME280;66361;52.034;20.656;2023-06-24T15:45:00;100235.59;;;20.11;81.13
77299;BME280;66361;52.034;20.656;2023-06-24T15:49:04;100245.78;;;20.77;79.36
77299;BME280;66361;52.034;20.656;2023-06-24T15:53:07;100245.78;;;21.11;74.25
77299;BME280;66361;52.034;20.656;2023-06-24T15:57:11;100238.53;;;21.37;70.42
77299;BME280;66361;52.034;20.656;2023-06-24T16:01:14;100246.66;;;21.53;68.87
77299;BME280;66361;52.034;20.656;2023-06-24T16:05:19;100245.16;;;21.67;69.99
77299;BME280;66361;52.034;20.656;2023-06-24T16:09:23;100238.97;;;21.74;67.40
77299;BME280;66361;52.034;20.656;2023-06-24T16:13:27;100239.13;;;21.81;64.98
77299;BME280;66361;52.034;20.656;2023-06-24T16:17:32;100240.00;;;22.06;66.79
77299;BME280;66361;52.034;20.656;2023-06-24T16:21:38;100237.13;;;22.07;65.72
77299;BME280;66361;52.034;20.656;2023-06-24T16:25:43;100235.94;;;21.78;68.96
77299;BME280;66361;52.034;20.656;2023-06-24T16:29:48;100234.41;;;21.67;67.23
77299;BME280;66361;52.034;20.656;2023-06-24T16:33:51;100239.22;;;21.39;68.17
77299;BME280;66361;52.034;20.656;2023-06-24T16:37:54;100230.91;;;21.24;70.38
77299;BME280;66361;52.034;20.656;2023-06-24T16:41:57;100235.09;;;21.19;72.09
77299;BME280;66361;52.034;20.656;2023-06-24T16:46:01;100235.59;;;21.22;71.16
77299;BME280;66361;52.034;20.656;2023-06-24T16:50:05;100222.56;;;21.27;71.03
77299;BME280;66361;52.034;20.656;2023-06-24T16:54:08;100225.97;;;21.38;68.33
77299;BME280;66361;52.034;20.656;2023-06-24T16:58:11;100231.53;;;21.52;68.12
77299;BME280;66361;52.034;20.656;2023-06-24T17:02:16;100220.47;;;21.55;67.46
77299;BME280;66361;52.034;20.656;2023-06-24T17:06:19;100220.47;;;21.63;66.83
77299;BME280;66361;52.034;20.656;2023-06-24T17:10:22;100213.28;;;21.72;66.99
77299;BME280;66361;52.034;20.656;2023-06-24T17:14:25;100216.47;;;21.76;67.58
77299;BME280;66361;52.034;20.656;2023-06-24T17:18:29;100217.47;;;21.83;67.29
77299;BME280;66361;52.034;20.656;2023-06-24T17:22:33;100214.81;;;21.91;65.72
77299;BME280;66361;52.034;20.656;2023-06-24T17:26:36;100204.06;;;21.83;68.61
77299;BME280;66361;52.034;20.656;2023-06-24T17:30:39;100200.34;;;21.76;64.55
77299;BME280;66361;52.034;20.656;2023-06-24T17:34:43;100205.22;;;21.64;67.93
77299;BME280;66361;52.034;20.656;2023-06-24T17:38:51;100190.91;;;21.55;64.02
77299;BME280;66361;52.034;20.656;2023-06-24T17:42:55;100195.75;;;21.36;68.11
77299;BME280;66361;52.034;20.656;2023-06-24T17:46:58;100187.91;;;21.08;67.73
77299;BME280;66361;52.034;20.656;2023-06-24T17:51:03;100195.75;;;20.94;71.06
77299;BME280;66361;52.034;20.656;2023-06-24T17:55:08;100189.25;;;20.70;73.08
77299;BME280;66361;52.034;20.656;2023-06-24T17:59:13;100194.66;;;20.45;75.56
77299;BME280;66361;52.034;20.656;2023-06-24T18:03:16;100195.28;;;20.21;78.04
77299;BME280;66361;52.034;20.656;2023-06-24T18:07:21;100189.06;;;19.95;80.58
77299;BME280;66361;52.034;20.656;2023-06-24T18:11:24;100186.84;;;19.72;82.13
77299;BME280;66361;52.034;20.656;2023-06-24T18:15:28;100192.25;;;19.45;83.76
77299;BME280;66361;52.034;20.656;2023-06-24T18:19:31;100196.91;;;19.25;84.67
77299;BME280;66361;52.034;20.656;2023-06-24T18:23:36;100194.66;;;19.03;86.68
77299;BME280;66361;52.034;20.656;2023-06-24T18:27:39;100200.09;;;18.84;87.03
77299;BME280;66361;52.034;20.656;2023-06-24T18:31:44;100210.69;;;18.66;88.90
77299;BME280;66361;52.034;20.656;2023-06-24T18:35:47;100202.44;;;18.50;91.85
77299;BME280;66361;52.034;20.656;2023-06-24T18:39:52;100208.66;;;18.31;90.97
77299;BME280;66361;52.034;20.656;2023-06-24T18:43:55;100207.84;;;18.12;93.16
77299;BME280;66361;52.034;20.656;2023-06-24T18:47:58;100198.59;;;17.97;93.19
77299;BME280;66361;52.034;20.656;2023-06-24T18:52:00;100202.81;;;17.80;95.45
77299;BME280;66361;52.034;20.656;2023-06-24T18:56:05;100206.19;;;17.63;95.99
77299;BME280;66361;52.034;20.656;2023-06-24T19:00:09;100205.72;;;17.48;98.23
77299;BME280;66361;52.034;20.656;2023-06-24T19:04:13;100204.44;;;17.33;98.64
77299;BME280;66361;52.034;20.656;2023-06-24T19:08:17;100199.50;;;17.19;99.93
77299;BME280;66361;52.034;20.656;2023-06-24T19:12:21;100203.25;;;17.07;100.00
77299;BME280;66361;52.034;20.656;2023-06-24T19:16:25;100206.44;;;16.91;99.82
77299;BME280;66361;52.034;20.656;2023-06-24T19:20:28;100206.25;;;16.83;100.00
77299;BME280;66361;52.034;20.656;2023-06-24T19:24:31;100215.19;;;16.72;100.00
77299;BME280;66361;52.034;20.656;2023-06-24T19:28:37;100211.66;;;16.62;100.00
77299;BME280;66361;52.034;20.656;2023-06-24T19:32:44;100202.63;;;16.54;100.00
77299;BME280;66361;52.034;20.656;2023-06-24T19:36:49;100203.06;;;16.38;100.00
77299;BME280;66361;52.034;20.656;2023-06-24T19:40:53;100205.28;;;16.33;100.00
77299;BME280;66361;52.034;20.656;2023-06-24T19:44:57;100206.06;;;16.24;100.00
77299;BME280;66361;52.034;20.656;2023-06-24T19:49:00;100216.25;;;16.19;100.00
77299;BME280;66361;52.034;20.656;2023-06-24T19:53:04;100204.72;;;16.09;100.00
77299;BME280;66361;52.034;20.656;2023-06-24T19:57:07;100208.88;;;16.02;100.00
77299;BME280;66361;52.034;20.656;2023-06-24T20:01:12;100203.34;;;15.93;100.00
77299;BME280;66361;52.034;20.656;2023-06-24T20:05:15;100202.28;;;15.85;100.00
77299;BME280;66361;52.034;20.656;2023-06-24T20:09:18;100201.84;;;15.80;100.00
77299;BME280;66361;52.034;20.656;2023-06-24T20:13:21;100206.69;;;15.75;100.00
77299;BME280;66361;52.034;20.656;2023-06-24T20:17:26;100193.53;;;15.73;100.00
77299;BME280;66361;52.034;20.656;2023-06-24T20:21:29;100200.41;;;15.76;100.00
77299;BME280;66361;52.034;20.656;2023-06-24T20:25:33;100198.25;;;15.70;100.00
77299;BME280;66361;52.034;20.656;2023-06-24T20:29:36;100196.56;;;15.69;100.00
77299;BME280;66361;52.034;20.656;2023-06-24T20:33:41;100193.44;;;15.64;100.00
77299;BME280;66361;52.034;20.656;2023-06-24T20:37:44;100200.25;;;15.57;100.00
77299;BME280;66361;52.034;20.656;2023-06-24T20:41:47;100197.09;;;15.51;100.00
77299;BME280;66361;52.034;20.656;2023-06-24T20:45:50;100193.22;;;15.56;100.00
77299;BME280;66361;52.034;20.656;2023-06-24T20:49:55;100198.09;;;15.50;100.00
77299;BME280;66361;52.034;20.656;2023-06-24T20:53:58;100197.50;;;15.47;100.00
77299;BME280;66361;52.034;20.656;2023-06-24T20:58:01;100196.06;;;15.43;100.00
77299;BME280;66361;52.034;20.656;2023-06-24T21:02:04;100189.69;;;15.34;100.00
77299;BME280;66361;52.034;20.656;2023-06-24T21:06:09;100191.72;;;15.31;100.00
77299;BME280;66361;52.034;20.656;2023-06-24T21:10:15;100193.03;;;15.25;100.00
77299;BME280;66361;52.034;20.656;2023-06-24T21:14:18;100187.66;;;15.16;100.00